Terminal Aerodrome Forecast
Issued by NWS

Current Version | Previous Version | Text Only | Print | Product List | Glossary On
Versions: 1 2 3 4 5 6 7 8 9 10 11 12 13 14 15 16 17 18 19 20 21 22 23 24 25 26
000
FTUS42 KFFC 150300 AAA
TAFPDK
TAF AMD
KPDK 150308Z 1503/1524 08004KT 3SM BR OVC005
     FM150600 09003KT 2SM BR OVC003
     FM151500 11005KT P6SM BKN012
     FM151900 25007KT P6SM BKN030 PROB30 1520/1524 4SM -TSRA
      BKN025CB=

USA.gov is the U.S. government's official web portal to all federal, state and local government web resources and services.